createdAt,value
2023-07-01T00:00:26.768Z,1005.85
2023-07-01T00:01:31.151Z,1005.86
2023-07-01T00:02:35.661Z,1005.84
2023-07-01T00:03:39.941Z,1005.85
2023-07-01T00:04:44.418Z,1005.85
2023-07-01T00:05:48.681Z,1005.77
2023-07-01T00:06:53.208Z,1005.77
2023-07-01T00:07:57.630Z,1005.79
2023-07-01T00:09:02.008Z,1005.77
2023-07-01T00:10:06.415Z,1005.76
2023-07-01T00:11:10.811Z,1005.73
2023-07-01T00:12:15.189Z,1005.72
2023-07-01T00:13:19.516Z,1005.71
2023-07-01T00:14:24.012Z,1005.73
2023-07-01T00:15:28.426Z,1005.75
2023-07-01T00:16:32.846Z,1005.78
2023-07-01T00:17:37.250Z,1005.79
2023-07-01T00:18:41.726Z,1005.78
2023-07-01T00:19:46.104Z,1005.77
2023-07-01T00:20:50.541Z,1005.74
2023-07-01T00:21:54.918Z,1005.72
2023-07-01T00:22:59.202Z,1005.68
2023-07-01T00:24:03.644Z,1005.70
2023-07-01T00:25:08.254Z,1005.71
2023-07-01T00:26:12.672Z,1005.72
2023-07-01T00:27:16.981Z,1005.72
2023-07-01T00:28:21.333Z,1005.70
2023-07-01T00:29:25.768Z,1005.70
2023-07-01T00:30:30.156Z,1005.68
2023-07-01T00:31:34.664Z,1005.67
2023-07-01T00:32:38.952Z,1005.64
2023-07-01T00:33:43.370Z,1005.61
2023-07-01T00:34:47.713Z,1005.62
2023-07-01T00:35:52.107Z,1005.58
2023-07-01T00:36:56.515Z,1005.58
2023-07-01T00:38:00.893Z,1005.57
2023-07-01T00:39:05.432Z,1005.59
2023-07-01T00:40:09.629Z,1005.57
2023-07-01T00:41:14.065Z,1005.56
2023-07-01T00:42:18.375Z,1005.55
2023-07-01T00:43:22.839Z,1005.59
2023-07-01T00:44:27.312Z,1005.56
2023-07-01T00:45:31.682Z,1005.57
2023-07-01T00:46:36.183Z,1005.57
2023-07-01T00:47:40.387Z,1005.54
2023-07-01T00:48:44.809Z,1005.55
2023-07-01T00:49:49.076Z,1005.55
2023-07-01T00:50:53.460Z,1005.56
2023-07-01T00:51:57.827Z,1005.56
2023-07-01T00:53:02.200Z,1005.55
2023-07-01T00:54:06.591Z,1005.56
2023-07-01T00:55:10.936Z,1005.53
2023-07-01T00:56:15.297Z,1005.55
2023-07-01T00:57:19.689Z,1005.55
2023-07-01T00:58:24.047Z,1005.55
2023-07-01T00:59:28.377Z,1005.56
2023-07-01T01:00:32.826Z,1005.54
2023-07-01T01:01:37.353Z,1005.52
2023-07-01T01:02:41.685Z,1005.51
2023-07-01T01:03:46.014Z,1005.52
2023-07-01T01:04:50.383Z,1005.55
2023-07-01T01:05:54.705Z,1005.54
2023-07-01T01:07:13.349Z,1005.52
2023-07-01T01:08:16.345Z,1005.52
2023-07-01T01:09:20.633Z,1005.51
2023-07-01T01:10:25.100Z,1005.49
2023-07-01T01:11:29.531Z,1005.50
2023-07-01T01:12:33.838Z,1005.50
2023-07-01T01:13:38.318Z,1005.49
2023-07-01T01:14:42.705Z,1005.49
2023-07-01T01:15:47.052Z,1005.49
2023-07-01T01:16:51.463Z,1005.50
2023-07-01T01:17:55.916Z,1005.50
2023-07-01T01:19:00.195Z,1005.50
2023-07-01T01:20:04.541Z,1005.48
2023-07-01T01:21:08.894Z,1005.47
2023-07-01T01:22:13.324Z,1005.47
2023-07-01T01:23:17.685Z,1005.44
2023-07-01T01:24:22.078Z,1005.42
2023-07-01T01:25:29.470Z,1005.42
2023-07-01T01:26:32.885Z,1005.41
2023-07-01T01:27:37.363Z,1005.44
2023-07-01T01:28:41.700Z,1005.44
2023-07-01T01:29:46.088Z,1005.44
2023-07-01T01:30:50.446Z,1005.44
2023-07-01T01:31:54.782Z,1005.45
2023-07-01T01:32:59.188Z,1005.45
2023-07-01T01:34:03.528Z,1005.44
2023-07-01T01:35:07.874Z,1005.44
2023-07-01T01:36:12.288Z,1005.43
2023-07-01T01:37:16.607Z,1005.42
2023-07-01T01:38:21.005Z,1005.40
2023-07-01T01:39:25.344Z,1005.41
2023-07-01T01:40:29.670Z,1005.39
2023-07-01T01:41:34.126Z,1005.39
2023-07-01T01:42:38.440Z,1005.39
2023-07-01T01:43:42.800Z,1005.37
2023-07-01T01:44:47.369Z,1005.37
2023-07-01T01:45:51.719Z,1005.35
2023-07-01T01:46:56.068Z,1005.34
2023-07-01T01:48:03.518Z,1005.36
2023-07-01T01:49:06.886Z,1005.34
2023-07-01T01:50:17.352Z,1005.35
2023-07-01T01:51:20.357Z,1005.33
2023-07-01T01:52:38.722Z,1005.32
2023-07-01T01:53:41.912Z,1005.30
2023-07-01T01:54:46.197Z,1005.29
2023-07-01T01:55:50.563Z,1005.28
2023-07-01T01:56:54.854Z,1005.29
2023-07-01T01:57:59.198Z,1005.26
2023-07-01T01:59:03.629Z,1005.27
2023-07-01T02:00:08.047Z,1005.25
2023-07-01T02:01:12.445Z,1005.25
2023-07-01T02:02:16.745Z,1005.22
2023-07-01T02:03:21.276Z,1005.22
2023-07-01T02:04:25.730Z,1005.20
2023-07-01T02:05:35.968Z,1005.18
2023-07-01T02:06:38.890Z,1005.16
2023-07-01T02:07:43.328Z,1005.15
2023-07-01T02:08:47.651Z,1005.14
2023-07-01T02:09:51.986Z,1005.13
2023-07-01T02:10:56.398Z,1005.12
2023-07-01T02:12:00.786Z,1005.13
2023-07-01T02:14:32.211Z,1005.10
2023-07-01T02:15:36.471Z,1005.10
2023-07-01T02:16:40.840Z,1005.11
2023-07-01T02:17:45.179Z,1005.08
2023-07-01T02:18:49.500Z,1005.08
2023-07-01T02:19:53.885Z,1005.06
2023-07-01T02:20:58.261Z,1005.06
2023-07-01T02:22:02.612Z,1005.05
2023-07-01T02:23:06.968Z,1005.04
2023-07-01T02:24:11.303Z,1005.01
2023-07-01T02:25:15.672Z,1004.98
2023-07-01T02:26:19.952Z,1004.99
2023-07-01T02:27:24.423Z,1004.97
2023-07-01T02:28:28.722Z,1004.96
2023-07-01T02:29:33.141Z,1004.93
2023-07-01T02:30:37.655Z,1004.90
2023-07-01T02:31:42.044Z,1004.90
2023-07-01T02:32:46.364Z,1004.89
2023-07-01T02:33:50.866Z,1004.89
2023-07-01T02:35:09.299Z,1004.89
2023-07-01T02:36:12.180Z,1004.88
2023-07-01T02:37:16.495Z,1004.85
2023-07-01T02:38:20.856Z,1004.84
2023-07-01T02:39:25.194Z,1004.82
2023-07-01T02:40:29.440Z,1004.83
2023-07-01T02:41:33.946Z,1004.82
2023-07-01T02:42:38.369Z,1004.82
2023-07-01T02:43:42.740Z,1004.81
2023-07-01T02:44:47.049Z,1004.78
2023-07-01T02:45:51.500Z,1004.77
2023-07-01T02:46:55.880Z,1004.76
2023-07-01T02:48:00.265Z,1004.75
2023-07-01T02:49:04.529Z,1004.76
2023-07-01T02:50:08.901Z,1004.75
2023-07-01T02:51:13.205Z,1004.75
2023-07-01T02:52:17.719Z,1004.75
2023-07-01T02:53:22.026Z,1004.75
2023-07-01T02:54:26.382Z,1004.74
2023-07-01T02:55:30.810Z,1004.75
2023-07-01T02:56:49.242Z,1004.75
2023-07-01T02:57:52.156Z,1004.75
2023-07-01T02:58:59.465Z,1004.75
2023-07-01T03:00:03.020Z,1004.74
2023-07-01T03:01:07.287Z,1004.75
2023-07-01T03:02:11.738Z,1004.73
2023-07-01T03:03:16.058Z,1004.73
2023-07-01T03:04:21.369Z,1004.74
2023-07-01T03:05:24.733Z,1004.70
2023-07-01T03:06:29.075Z,1004.68
2023-07-01T03:07:33.416Z,1004.66
2023-07-01T03:08:37.915Z,1004.65
2023-07-01T03:09:42.216Z,1004.65
2023-07-01T03:10:46.961Z,1004.65
2023-07-01T03:11:50.972Z,1004.64
2023-07-01T03:12:55.320Z,1004.64
2023-07-01T03:13:59.693Z,1004.64
2023-07-01T03:15:04.057Z,1004.63
2023-07-01T03:16:08.611Z,1004.61
2023-07-01T03:17:12.891Z,1004.58
2023-07-01T03:18:17.234Z,1004.58
2023-07-01T03:19:21.660Z,1004.59
2023-07-01T03:20:25.964Z,1004.58
2023-07-01T03:21:30.452Z,1004.58
2023-07-01T03:22:34.812Z,1004.57
2023-07-01T03:23:39.131Z,1004.53
2023-07-01T03:24:43.444Z,1004.51
2023-07-01T03:25:47.822Z,1004.51
2023-07-01T03:26:52.281Z,1004.48
2023-07-01T03:27:56.632Z,1004.47
2023-07-01T03:29:01.012Z,1004.46
2023-07-01T03:30:05.309Z,1004.44
2023-07-01T03:31:09.822Z,1004.42
2023-07-01T03:32:14.260Z,1004.39
2023-07-01T03:33:18.675Z,1004.39
2023-07-01T03:34:23.024Z,1004.40
2023-07-01T03:35:27.446Z,1004.41
2023-07-01T03:36:31.802Z,1004.37
2023-07-01T03:37:36.151Z,1004.38
2023-07-01T03:38:40.559Z,1004.35
2023-07-01T03:39:44.859Z,1004.34
2023-07-01T03:40:49.634Z,1004.32
2023-07-01T03:41:53.693Z,1004.32
2023-07-01T03:42:58.089Z,1004.31
2023-07-01T03:44:02.356Z,1004.30
2023-07-01T03:45:06.814Z,1004.29
2023-07-01T03:46:11.256Z,1004.27
2023-07-01T03:47:15.692Z,1004.27
2023-07-01T03:48:20.025Z,1004.25
2023-07-01T03:49:24.318Z,1004.23
2023-07-01T03:50:28.766Z,1004.22
2023-07-01T03:51:33.059Z,1004.22
2023-07-01T03:52:38.638Z,1004.21
2023-07-01T03:53:41.783Z,1004.23
2023-07-01T03:54:46.177Z,1004.22
2023-07-01T03:55:50.488Z,1004.23
2023-07-01T03:56:54.816Z,1004.21
2023-07-01T03:57:59.247Z,1004.17
2023-07-01T03:59:03.590Z,1004.15
2023-07-01T04:00:07.931Z,1004.12
2023-07-01T04:01:12.388Z,1004.09
2023-07-01T04:02:16.722Z,1004.08
2023-07-01T04:03:21.327Z,1004.07
2023-07-01T04:04:25.461Z,1004.03
2023-07-01T04:05:29.784Z,1003.99
2023-07-01T04:06:34.125Z,1003.98
2023-07-01T04:07:38.569Z,1003.95
2023-07-01T04:08:42.905Z,1003.91
2023-07-01T04:09:47.249Z,1003.89
2023-07-01T04:10:51.618Z,1003.89
2023-07-01T04:11:56.071Z,1003.87
2023-07-01T04:13:00.378Z,1003.84
2023-07-01T04:14:04.772Z,1003.81
2023-07-01T04:15:09.080Z,1003.81
2023-07-01T04:16:13.504Z,1003.78
2023-07-01T04:17:17.919Z,1003.79
2023-07-01T04:18:22.202Z,1003.80
2023-07-01T04:19:40.666Z,1003.78
2023-07-01T04:20:58.011Z,1003.79
2023-07-01T04:22:01.170Z,1003.79
2023-07-01T04:23:11.561Z,1003.82
2023-07-01T04:24:14.630Z,1003.82
2023-07-01T04:25:19.037Z,1003.83
2023-07-01T04:26:23.392Z,1003.81
2023-07-01T04:27:41.865Z,1003.80
2023-07-01T04:28:45.268Z,1003.79
2023-07-01T04:29:49.545Z,1003.78
2023-07-01T04:30:54.042Z,1003.75
2023-07-01T04:31:58.304Z,1003.74
2023-07-01T04:33:02.767Z,1003.73
2023-07-01T04:34:07.066Z,1003.75
2023-07-01T04:35:11.388Z,1003.73
2023-07-01T04:36:15.829Z,1003.71
2023-07-01T04:37:20.225Z,1003.69
2023-07-01T04:38:24.611Z,1003.66
2023-07-01T04:39:29.119Z,1003.63
2023-07-01T04:40:33.384Z,1003.61
2023-07-01T04:41:37.760Z,1003.60
2023-07-01T04:42:42.203Z,1003.60
2023-07-01T04:43:46.613Z,1003.59
2023-07-01T04:44:50.981Z,1003.58
2023-07-01T04:45:55.273Z,1003.57
2023-07-01T04:46:59.748Z,1003.57
2023-07-01T04:48:07.019Z,1003.58
2023-07-01T04:49:10.500Z,1003.58
2023-07-01T04:50:15.072Z,1003.57
2023-07-01T04:51:19.211Z,1003.57
2023-07-01T04:52:23.531Z,1003.56
2023-07-01T04:53:27.943Z,1003.58
2023-07-01T04:54:32.314Z,1003.58
2023-07-01T04:55:36.701Z,1003.57
2023-07-01T04:56:41.187Z,1003.57
2023-07-01T04:57:48.578Z,1003.52
2023-07-01T04:59:06.012Z,1003.53
2023-07-01T05:00:09.193Z,1003.52
2023-07-01T05:01:13.484Z,1003.54
2023-07-01T05:02:17.870Z,1003.50
2023-07-01T05:03:22.364Z,1003.50
2023-07-01T05:04:26.614Z,1003.48
2023-07-01T05:05:31.075Z,1003.46
2023-07-01T05:06:35.285Z,1003.46
2023-07-01T05:07:39.827Z,1003.43
2023-07-01T05:08:44.059Z,1003.45
2023-07-01T05:09:49.504Z,1003.46
2023-07-01T05:10:53.590Z,1003.43
2023-07-01T05:11:57.834Z,1003.43
2023-07-01T05:13:02.296Z,1003.42
2023-07-01T05:14:06.621Z,1003.42
2023-07-01T05:15:11.046Z,1003.41
2023-07-01T05:16:15.376Z,1003.40
2023-07-01T05:17:19.818Z,1003.40
2023-07-01T05:18:24.185Z,1003.39
2023-07-01T05:19:28.567Z,1003.41
2023-07-01T05:20:32.895Z,1003.42
2023-07-01T05:21:37.303Z,1003.42
2023-07-01T05:22:41.761Z,1003.43
2023-07-01T05:23:46.245Z,1003.43
2023-07-01T05:24:50.642Z,1003.43
2023-07-01T05:25:55.091Z,1003.39
2023-07-01T05:26:59.503Z,1003.40
2023-07-01T05:28:03.819Z,1003.37
2023-07-01T05:29:08.276Z,1003.36
2023-07-01T05:30:12.652Z,1003.35
2023-07-01T05:31:17.077Z,1003.36
2023-07-01T05:32:21.455Z,1003.36
2023-07-01T05:33:28.750Z,1003.37
2023-07-01T05:34:32.356Z,1003.35
2023-07-01T05:35:36.718Z,1003.34
2023-07-01T05:36:41.197Z,1003.31
2023-07-01T05:37:45.571Z,1003.31
2023-07-01T05:38:50.954Z,1003.32
2023-07-01T05:39:54.356Z,1003.30
2023-07-01T05:40:58.752Z,1003.27
2023-07-01T05:42:03.180Z,1003.26
2023-07-01T05:43:10.593Z,1003.25
2023-07-01T05:44:28.193Z,1003.25
2023-07-01T05:45:31.633Z,1003.24
2023-07-01T05:46:36.156Z,1003.22
2023-07-01T05:47:40.410Z,1003.20
2023-07-01T05:48:44.823Z,1003.18
2023-07-01T05:49:49.250Z,1003.19
2023-07-01T05:50:53.660Z,1003.17
2023-07-01T05:51:58.071Z,1003.17
2023-07-01T05:53:02.490Z,1003.17
2023-07-01T05:54:06.874Z,1003.17
2023-07-01T05:55:11.295Z,1003.18
2023-07-01T05:56:15.703Z,1003.17
2023-07-01T05:57:20.048Z,1003.15
2023-07-01T05:58:24.503Z,1003.13
2023-07-01T05:59:28.931Z,1003.12
2023-07-01T06:00:47.637Z,1003.09
2023-07-01T06:01:50.875Z,1003.07
2023-07-01T06:02:55.242Z,1003.07
2023-07-01T06:03:59.554Z,1003.04
2023-07-01T06:05:04.146Z,1003.06
2023-07-01T06:06:08.353Z,1003.07
2023-07-01T06:07:12.787Z,1003.04
2023-07-01T06:08:17.225Z,1003.02
2023-07-01T06:09:21.642Z,1003.01
2023-07-01T06:10:31.962Z,1003.01
2023-07-01T06:11:34.977Z,1002.99
2023-07-01T06:12:39.525Z,1003.01
2023-07-01T06:13:43.746Z,1002.98
2023-07-01T06:14:48.211Z,1003.00
2023-07-01T06:15:52.642Z,1002.99
2023-07-01T06:16:57.076Z,1002.96
2023-07-01T06:18:15.488Z,1002.94
2023-07-01T06:19:18.808Z,1002.97
2023-07-01T06:20:37.147Z,1002.95
2023-07-01T06:21:40.554Z,1002.96
2023-07-01T06:24:12.372Z,1002.99
2023-07-01T06:25:16.757Z,1003.01
2023-07-01T06:26:21.114Z,1003.00
2023-07-01T06:27:25.490Z,1003.01
2023-07-01T06:28:29.914Z,1002.99
2023-07-01T06:29:34.282Z,1002.98
2023-07-01T06:30:38.775Z,1002.97
2023-07-01T06:31:43.286Z,1002.95
2023-07-01T06:32:47.677Z,1002.96
2023-07-01T06:33:51.957Z,1002.94
2023-07-01T06:34:56.423Z,1002.91
2023-07-01T06:36:01.824Z,1002.90
2023-07-01T06:37:05.857Z,1002.90
2023-07-01T06:38:10.200Z,1002.87
2023-07-01T06:39:14.678Z,1002.85
2023-07-01T06:40:19.111Z,1002.86
2023-07-01T06:41:23.510Z,1002.86
2023-07-01T06:42:27.934Z,1002.82
2023-07-01T06:43:32.383Z,1002.82
2023-07-01T06:44:36.792Z,1002.82
2023-07-01T06:45:41.311Z,1002.79
2023-07-01T06:46:45.596Z,1002.80
2023-07-01T06:47:50.010Z,1002.81
2023-07-01T06:48:54.442Z,1002.77
2023-07-01T06:49:58.824Z,1002.79
2023-07-01T06:51:03.277Z,1002.75
2023-07-01T06:52:07.685Z,1002.76
2023-07-01T06:53:12.212Z,1002.73
2023-07-01T06:54:16.499Z,1002.71
2023-07-01T06:55:20.942Z,1002.70
2023-07-01T06:56:25.284Z,1002.72
2023-07-01T06:57:29.734Z,1002.69
2023-07-01T06:58:34.131Z,1002.67
2023-07-01T06:59:52.586Z,1002.69
2023-07-01T07:00:55.939Z,1002.68
2023-07-01T07:02:00.337Z,1002.67
2023-07-01T07:03:05.055Z,1002.62
2023-07-01T07:04:09.308Z,1002.62
2023-07-01T07:05:16.560Z,1002.58
2023-07-01T07:06:20.057Z,1002.55
2023-07-01T07:07:24.442Z,1002.53
2023-07-01T07:08:28.816Z,1002.52
2023-07-01T07:09:33.280Z,1002.53
2023-07-01T07:10:37.680Z,1002.50
2023-07-01T07:11:42.120Z,1002.47
2023-07-01T07:12:46.523Z,1002.46
2023-07-01T07:13:50.954Z,1002.45
2023-07-01T07:14:55.364Z,1002.42
2023-07-01T07:15:59.825Z,1002.40
2023-07-01T07:17:04.198Z,1002.41
2023-07-01T07:18:08.624Z,1002.35
2023-07-01T07:19:12.994Z,1002.31
2023-07-01T07:20:17.412Z,1002.30
2023-07-01T07:21:21.792Z,1002.29
2023-07-01T07:22:26.180Z,1002.26
2023-07-01T07:23:30.659Z,1002.27
2023-07-01T07:24:35.040Z,1002.25
2023-07-01T07:25:42.500Z,1002.24
2023-07-01T07:26:46.055Z,1002.24
2023-07-01T07:27:50.535Z,1002.21
2023-07-01T07:28:54.864Z,1002.20
2023-07-01T07:29:59.327Z,1002.17
2023-07-01T07:31:03.789Z,1002.16
2023-07-01T07:32:08.089Z,1002.16
2023-07-01T07:33:12.537Z,1002.18
2023-07-01T07:34:16.937Z,1002.15
2023-07-01T07:35:21.436Z,1002.12
2023-07-01T07:36:25.857Z,1002.12
2023-07-01T07:37:30.184Z,1002.10
2023-07-01T07:38:34.627Z,1002.08
2023-07-01T07:39:39.004Z,1002.08
2023-07-01T07:40:43.504Z,1002.05
2023-07-01T07:42:02.056Z,1002.04
2023-07-01T07:43:05.397Z,1002.02
2023-07-01T07:44:09.808Z,1001.98
2023-07-01T07:45:14.248Z,1002.00
2023-07-01T07:46:18.777Z,1001.99
2023-07-01T07:47:23.058Z,1001.97
2023-07-01T07:48:30.517Z,1001.96
2023-07-01T07:49:34.052Z,1001.92
2023-07-01T07:50:38.530Z,1001.91
2023-07-01T07:51:43.021Z,1001.90
2023-07-01T07:52:47.416Z,1001.85
2023-07-01T07:53:51.833Z,1001.83
2023-07-01T07:54:56.211Z,1001.83
2023-07-01T07:56:00.673Z,1001.83
2023-07-01T07:57:05.188Z,1001.79
2023-07-01T07:58:09.592Z,1001.78
2023-07-01T07:59:14.067Z,1001.78
2023-07-01T08:00:18.409Z,1001.71
2023-07-01T08:01:22.917Z,1001.70
2023-07-01T08:02:27.342Z,1001.71
2023-07-01T08:03:31.823Z,1001.71
2023-07-01T08:04:36.287Z,1001.67
2023-07-01T08:05:40.684Z,1001.63
2023-07-01T08:06:45.181Z,1001.59
2023-07-01T08:07:49.513Z,1001.56
2023-07-01T08:08:53.914Z,1001.58
2023-07-01T08:09:58.376Z,1001.55
2023-07-01T08:11:02.736Z,1001.55
2023-07-01T08:12:07.117Z,1001.57
2023-07-01T08:13:11.528Z,1001.59
2023-07-01T08:14:15.982Z,1001.63
2023-07-01T08:15:20.412Z,1001.64
2023-07-01T08:16:24.795Z,1001.64
2023-07-01T08:17:29.388Z,1001.64
2023-07-01T08:18:33.896Z,1001.61
2023-07-01T08:19:38.145Z,1001.65
2023-07-01T08:20:42.609Z,1001.65
2023-07-01T08:21:47.008Z,1001.66
2023-07-01T08:22:51.522Z,1001.65
2023-07-01T08:23:55.895Z,1001.66
2023-07-01T08:25:06.336Z,1001.63
2023-07-01T08:26:09.386Z,1001.61
2023-07-01T08:27:13.785Z,1001.62
2023-07-01T08:28:18.109Z,1001.61
2023-07-01T08:29:22.500Z,1001.60
2023-07-01T08:30:40.903Z,1001.57
2023-07-01T08:31:44.346Z,1001.58
2023-07-01T08:32:48.830Z,1001.61
2023-07-01T08:33:53.081Z,1001.57
2023-07-01T08:34:57.539Z,1001.58
2023-07-01T08:36:01.936Z,1001.56
2023-07-01T08:37:06.314Z,1001.60
2023-07-01T08:38:10.810Z,1001.59
2023-07-01T08:39:15.224Z,1001.57
2023-07-01T08:40:19.621Z,1001.56
2023-07-01T08:41:24.114Z,1001.55
2023-07-01T08:42:28.477Z,1001.53
2023-07-01T08:43:33.014Z,1001.53
2023-07-01T08:44:37.456Z,1001.55
2023-07-01T08:45:41.919Z,1001.52
2023-07-01T08:46:46.447Z,1001.53
2023-07-01T08:47:50.772Z,1001.50
2023-07-01T08:48:55.116Z,1001.50
2023-07-01T08:50:00.552Z,1001.54
2023-07-01T08:51:04.144Z,1001.53
2023-07-01T08:52:08.563Z,1001.49
2023-07-01T08:53:13.039Z,1001.46
2023-07-01T08:54:17.439Z,1001.47
2023-07-01T08:55:21.763Z,1001.47
2023-07-01T08:56:26.171Z,1001.45
2023-07-01T08:57:30.583Z,1001.46
2023-07-01T08:58:35.054Z,1001.46
2023-07-01T08:59:39.466Z,1001.43
2023-07-01T09:00:43.829Z,1001.42
2023-07-01T09:01:48.332Z,1001.39
2023-07-01T09:02:52.831Z,1001.34
2023-07-01T09:03:57.355Z,1001.35
2023-07-01T09:05:01.776Z,1001.35
2023-07-01T09:06:05.943Z,1001.36
2023-07-01T09:07:10.369Z,1001.36
2023-07-01T09:08:14.766Z,1001.32
2023-07-01T09:09:19.266Z,1001.33
2023-07-01T09:10:23.707Z,1001.32
2023-07-01T09:11:28.255Z,1001.30
2023-07-01T09:12:32.552Z,1001.29
2023-07-01T09:13:36.982Z,1001.25
2023-07-01T09:14:41.476Z,1001.23
2023-07-01T09:15:46.390Z,1001.21
2023-07-01T09:16:50.441Z,1001.22
2023-07-01T09:17:54.952Z,1001.23
2023-07-01T09:18:59.487Z,1001.23
2023-07-01T09:20:06.806Z,1001.23
2023-07-01T09:21:10.398Z,1001.24
2023-07-01T09:22:14.743Z,1001.21
2023-07-01T09:23:19.223Z,1001.19
2023-07-01T09:24:23.664Z,1001.17
2023-07-01T09:25:28.178Z,1001.20
2023-07-01T09:26:32.576Z,1001.16
2023-07-01T09:27:37.095Z,1001.14
2023-07-01T09:28:41.560Z,1001.13
2023-07-01T09:29:46.089Z,1001.13
2023-07-01T09:31:04.522Z,1001.12
2023-07-01T09:32:07.691Z,1001.10
2023-07-01T09:33:12.120Z,1001.10
2023-07-01T09:34:16.542Z,1001.08
2023-07-01T09:35:34.978Z,1001.05
2023-07-01T09:36:38.445Z,1001.02
2023-07-01T09:37:42.805Z,1001.02
2023-07-01T09:38:47.279Z,1000.99
2023-07-01T09:40:05.696Z,1000.99
2023-07-01T09:41:08.914Z,1000.93
2023-07-01T09:42:13.366Z,1000.93
2023-07-01T09:43:17.762Z,1000.94
2023-07-01T09:44:22.200Z,1000.90
2023-07-01T09:45:26.608Z,1000.90
2023-07-01T09:46:31.104Z,1000.90
2023-07-01T09:47:49.554Z,1000.88
2023-07-01T09:48:52.669Z,1000.86
2023-07-01T09:49:57.155Z,1000.88
2023-07-01T09:51:01.595Z,1000.84
2023-07-01T09:52:20.038Z,1000.82
2023-07-01T09:53:23.324Z,1000.82
2023-07-01T09:54:27.848Z,1000.78
2023-07-01T09:55:32.227Z,1000.78
2023-07-01T09:56:36.620Z,1000.77
2023-07-01T09:57:41.065Z,1000.77
2023-07-01T09:58:45.435Z,1000.77
2023-07-01T09:59:49.907Z,1000.75
2023-07-01T10:00:54.265Z,1000.72
2023-07-01T10:02:12.850Z,1000.74
2023-07-01T10:03:22.274Z,1000.73
2023-07-01T10:04:25.292Z,1000.67
2023-07-01T10:05:29.653Z,1000.70
2023-07-01T10:06:34.089Z,1000.72
2023-07-01T10:07:38.541Z,1000.69
2023-07-01T10:08:43.003Z,1000.64
2023-07-01T10:09:47.461Z,1000.64
2023-07-01T10:10:51.829Z,1000.68
2023-07-01T10:11:56.290Z,1000.65
2023-07-01T10:13:00.830Z,1000.61
2023-07-01T10:14:08.137Z,1000.68
2023-07-01T10:15:12.957Z,1000.67
2023-07-01T10:16:16.046Z,1000.70
2023-07-01T10:17:20.727Z,1000.70
2023-07-01T10:18:24.958Z,1000.71
2023-07-01T10:19:29.375Z,1000.76
2023-07-01T10:20:33.705Z,1000.71
2023-07-01T10:21:38.104Z,1000.72
2023-07-01T10:22:42.501Z,1000.69
2023-07-01T10:23:46.953Z,1000.68
2023-07-01T10:24:54.350Z,1000.67
2023-07-01T10:25:58.008Z,1000.66
2023-07-01T10:27:02.413Z,1000.63
2023-07-01T10:28:06.723Z,1000.63
2023-07-01T10:29:11.209Z,1000.59
2023-07-01T10:30:15.666Z,1000.57
2023-07-01T10:31:19.996Z,1000.59
2023-07-01T10:32:24.414Z,1000.56
2023-07-01T10:33:28.840Z,1000.56
2023-07-01T10:34:33.284Z,1000.53
2023-07-01T10:35:37.759Z,1000.50
2023-07-01T10:36:42.090Z,1000.48
2023-07-01T10:37:46.564Z,1000.43
2023-07-01T10:38:50.952Z,1000.41
2023-07-01T10:39:58.350Z,1000.40
2023-07-01T10:41:01.979Z,1000.36
2023-07-01T10:42:06.342Z,1000.33
2023-07-01T10:43:10.705Z,1000.33
2023-07-01T10:44:15.077Z,1000.31
2023-07-01T10:45:19.476Z,1000.27
2023-07-01T10:46:23.866Z,1000.25
2023-07-01T10:47:28.451Z,1000.24
2023-07-01T10:48:32.806Z,1000.25
2023-07-01T10:49:37.139Z,1000.25
2023-07-01T10:50:41.566Z,1000.24
2023-07-01T10:51:45.965Z,1000.23
2023-07-01T10:52:50.348Z,1000.23
2023-07-01T10:53:54.822Z,1000.24
2023-07-01T10:54:59.143Z,1000.25
2023-07-01T10:56:03.508Z,1000.27
2023-07-01T10:57:07.925Z,1000.27
2023-07-01T10:58:12.278Z,1000.27
2023-07-01T10:59:16.763Z,1000.26
2023-07-01T11:00:21.205Z,1000.27
2023-07-01T11:01:25.717Z,1000.27
2023-07-01T11:02:30.006Z,1000.32
2023-07-01T11:03:34.858Z,1000.31
2023-07-01T11:04:39.004Z,1000.33
2023-07-01T11:05:43.313Z,1000.35
2023-07-01T11:06:47.713Z,1000.36
2023-07-01T11:07:52.066Z,1000.34
2023-07-01T11:08:56.470Z,1000.35
2023-07-01T11:10:00.851Z,1000.38
2023-07-01T11:11:05.277Z,1000.39
2023-07-01T11:12:09.673Z,1000.40
2023-07-01T11:13:14.083Z,1000.39
2023-07-01T11:14:18.429Z,1000.41
2023-07-01T11:15:22.802Z,1000.47
2023-07-01T11:16:27.291Z,1000.39
2023-07-01T11:17:34.688Z,1000.39
2023-07-01T11:18:38.110Z,1000.38
2023-07-01T11:19:42.556Z,1000.41
2023-07-01T11:20:46.982Z,1000.37
2023-07-01T11:21:51.427Z,1000.43
2023-07-01T11:22:55.837Z,1000.41
2023-07-01T11:24:00.201Z,1000.43
2023-07-01T11:25:04.598Z,1000.43
2023-07-01T11:26:09.095Z,1000.45
2023-07-01T11:27:13.509Z,1000.48
2023-07-01T11:28:20.947Z,1000.52
2023-07-01T11:29:24.494Z,1000.53
2023-07-01T11:30:28.959Z,1000.56
2023-07-01T11:31:33.410Z,1000.54
2023-07-01T11:32:37.799Z,1000.56
2023-07-01T11:33:42.264Z,1000.60
2023-07-01T11:34:46.572Z,1000.63
2023-07-01T11:35:57.080Z,1000.64
2023-07-01T11:37:00.176Z,1000.63
2023-07-01T11:38:04.561Z,1000.75
2023-07-01T11:39:08.974Z,1000.69
2023-07-01T11:40:13.285Z,1000.72
2023-07-01T11:41:17.694Z,1000.71
2023-07-01T11:42:22.163Z,1000.70
2023-07-01T11:43:26.573Z,1000.71
2023-07-01T11:44:30.926Z,1000.73
2023-07-01T11:45:35.395Z,1000.70
2023-07-01T11:46:39.918Z,1000.73
2023-07-01T11:47:44.337Z,1000.75
2023-07-01T11:48:48.790Z,1000.75
2023-07-01T11:49:53.211Z,1000.73
2023-07-01T11:50:57.704Z,1000.77
2023-07-01T11:52:02.003Z,1000.75
2023-07-01T11:53:06.456Z,1000.72
2023-07-01T11:54:13.296Z,1000.72
2023-07-01T11:55:15.166Z,1000.71
2023-07-01T11:56:19.591Z,1000.75
2023-07-01T11:57:23.984Z,1000.78
2023-07-01T11:58:28.436Z,1000.74
2023-07-01T11:59:32.694Z,1000.78
2023-07-01T12:00:37.080Z,1000.75
2023-07-01T12:01:41.700Z,1000.78
2023-07-01T12:02:45.933Z,1000.79
2023-07-01T12:03:50.250Z,1000.73
2023-07-01T12:04:54.736Z,1000.77
2023-07-01T12:05:59.141Z,1000.74
2023-07-01T12:07:04.575Z,1000.76
2023-07-01T12:08:08.018Z,1000.75
2023-07-01T12:09:12.311Z,1000.77
2023-07-01T12:10:16.653Z,1000.79
2023-07-01T12:11:21.113Z,1000.78
2023-07-01T12:12:28.495Z,1000.76
2023-07-01T12:13:31.867Z,1000.73
2023-07-01T12:14:36.338Z,1000.73
2023-07-01T12:15:40.751Z,1000.71
2023-07-01T12:16:45.081Z,1000.71
2023-07-01T12:17:49.528Z,1000.74
2023-07-01T12:18:53.841Z,1000.72
2023-07-01T12:19:58.211Z,1000.72
2023-07-01T12:21:05.619Z,1000.72
2023-07-01T12:22:09.078Z,1000.71
2023-07-01T12:23:13.461Z,1000.69
2023-07-01T12:24:17.967Z,1000.73
2023-07-01T12:25:22.279Z,1000.74
2023-07-01T12:26:26.714Z,1000.70
2023-07-01T12:27:31.048Z,1000.70
2023-07-01T12:28:35.410Z,1000.69
2023-07-01T12:29:39.761Z,1000.72
2023-07-01T12:30:44.237Z,1000.77
2023-07-01T12:31:48.689Z,1000.75
2023-07-01T12:32:53.003Z,1000.69
2023-07-01T12:33:57.403Z,1000.70
2023-07-01T12:35:01.754Z,1000.71
2023-07-01T12:36:06.222Z,1000.71
2023-07-01T12:37:10.602Z,1000.74
2023-07-01T12:38:14.910Z,1000.74
2023-07-01T12:39:19.340Z,1000.71
2023-07-01T12:40:23.695Z,1000.72
2023-07-01T12:41:28.222Z,1000.70
2023-07-01T12:42:32.578Z,1000.73
2023-07-01T12:43:36.930Z,1000.71
2023-07-01T12:44:41.287Z,1000.71
2023-07-01T12:45:49.026Z,1000.67
2023-07-01T12:46:52.133Z,1000.66
2023-07-01T12:47:56.541Z,1000.72
2023-07-01T12:49:00.917Z,1000.71
2023-07-01T12:50:19.276Z,1000.72
2023-07-01T12:51:22.558Z,1000.72
2023-07-01T12:52:26.848Z,1000.68
2023-07-01T12:53:31.273Z,1000.73
2023-07-01T12:54:35.671Z,1000.73
2023-07-01T12:55:40.001Z,1000.71
2023-07-01T12:56:44.381Z,1000.68
2023-07-01T12:57:48.904Z,1000.70
2023-07-01T12:58:53.267Z,1000.70
2023-07-01T12:59:57.614Z,1000.66
2023-07-01T13:01:07.025Z,1000.68
2023-07-01T13:02:20.534Z,1000.64
2023-07-01T13:03:23.883Z,1000.61
2023-07-01T13:04:28.494Z,1000.62
2023-07-01T13:05:32.686Z,1000.60
2023-07-01T13:06:37.124Z,1000.62
2023-07-01T13:07:41.401Z,1000.60